Time;durP1;ratioP1;P1;durP2;ratioP2;P2;SDS_P1;SDS_P2;PMS_P1;PMS_P2;Temp;Humidity;BMP_temperature;BMP_pressure;BME280_temperature;BME280_humidity;BME280_pressure;Samples;Min_cycle;Max_cycle;Signal;HPM_P1;HPM_P2
2021/07/21 00:00:48;;;;;;;12.27;8.63;;;;;;;;;;143744;697;45021;-54
2021/07/21 00:03:15;;;;;;;10.70;8.25;;;;;;;;;;143743;594;46022;-54
2021/07/21 00:05:42;;;;;;;9.95;8.40;;;;;;;;;;143735;592;46020;-54
2021/07/21 00:08:09;;;;;;;10.80;8.27;;;;;;;;;;143738;623;46013;-54
2021/07/21 00:10:37;;;;;;;12.40;9.20;;;;;;;;;;143741;599;45021;-53
2021/07/21 00:18:49;;;;;;;12.23;8.70;;;;;;;;;;143736;727;46020;-53
2021/07/21 00:21:18;;;;;;;11.75;8.45;;;;;;;;;;143745;625;46020;-54
2021/07/21 00:23:46;;;;;;;12.95;8.95;;;;;;;;;;143741;603;46021;-53
2021/07/21 00:26:12;;;;;;;15.18;8.27;;;;;;;;;;143739;582;46020;-54
2021/07/21 00:28:41;;;;;;;12.82;9.20;;;;;;;;;;143740;601;46012;-54
2021/07/21 00:31:10;;;;;;;15.05;8.57;;;;;;;;;;143743;576;46021;-54
2021/07/21 00:33:38;;;;;;;13.25;8.32;;;;;;;;;;143741;627;46022;-53
2021/07/21 00:36:05;;;;;;;9.80;8.20;;;;;;;;;;143736;623;46020;-53
2021/07/21 00:38:32;;;;;;;15.35;8.43;;;;;;;;;;143740;612;46012;-54
2021/07/21 00:40:59;;;;;;;12.63;8.88;;;;;;;;;;143742;576;46020;-54
2021/07/21 00:43:28;;;;;;;12.85;8.30;;;;;;;;;;143733;597;46022;-54
2021/07/21 00:45:55;;;;;;;10.38;8.40;;;;;;;;;;143739;570;46021;-53
2021/07/21 00:48:22;;;;;;;14.82;8.32;;;;;;;;;;143736;586;46020;-53
2021/07/21 00:50:49;;;;;;;10.23;7.87;;;;;;;;;;143740;577;45020;-53
2021/07/21 00:53:16;;;;;;;11.93;8.95;;;;;;;;;;143742;619;46022;-54
2021/07/21 00:55:43;;;;;;;10.10;8.38;;;;;;;;;;143739;590;46020;-52
2021/07/21 00:58:10;;;;;;;11.30;8.27;;;;;;;;;;143741;566;46012;-53
2021/07/21 01:00:38;;;;;;;14.35;8.68;;;;;;;;;;143744;571;45021;-55
2021/07/21 01:03:05;;;;;;;10.75;8.43;;;;;;;;;;143741;599;46023;-53
2021/07/21 01:05:41;;;;;;;9.88;7.87;;;;;;;;;;143739;582;46020;-54
2021/07/21 01:08:12;;;;;;;12.13;8.20;;;;;;;;;;143735;570;46012;-53
2021/07/21 01:10:44;;;;;;;12.18;8.55;;;;;;;;;;143745;612;46020;-53
2021/07/21 01:13:21;;;;;;;11.38;7.70;;;;;;;;;;143742;565;46022;-54
2021/07/21 01:16:05;;;;;;;10.98;8.45;;;;;;;;;;143740;574;46021;-53
2021/07/21 01:19:02;;;;;;;15.05;9.55;;;;;;;;;;143740;618;46012;-53
2021/07/21 01:22:21;;;;;;;11.82;8.60;;;;;;;;;;143744;578;46020;-54
2021/07/21 01:25:19;;;;;;;14.90;9.23;;;;;;;;;;143740;589;46025;-54
2021/07/21 01:27:55;;;;;;;12.57;8.82;;;;;;;;;;143738;698;46020;-54
2021/07/21 01:30:27;;;;;;;14.90;8.75;;;;;;;;;;143740;564;46012;-54
2021/07/21 01:33:04;;;;;;;16.35;9.60;;;;;;;;;;143745;570;45020;-54
2021/07/21 01:35:38;;;;;;;16.17;10.05;;;;;;;;;;143734;572;46022;-54
2021/07/21 01:38:16;;;;;;;12.20;9.65;;;;;;;;;;143740;619;46020;-54
2021/07/21 01:40:54;;;;;;;13.32;9.27;;;;;;;;;;143738;627;46012;-54
2021/07/21 01:43:26;;;;;;;15.55;9.43;;;;;;;;;;143742;611;46012;-55
2021/07/21 01:45:54;;;;;;;14.48;9.65;;;;;;;;;;143740;566;47021;-53
2021/07/21 01:48:23;;;;;;;11.85;9.25;;;;;;;;;;143738;586;46020;-55
2021/07/21 01:50:54;;;;;;;14.70;10.07;;;;;;;;;;143741;564;46012;-54
2021/07/21 01:53:22;;;;;;;15.63;9.82;;;;;;;;;;143744;592;46021;-53
2021/07/21 01:55:50;;;;;;;14.38;10.40;;;;;;;;;;143739;583;46022;-54
2021/07/21 01:58:18;;;;;;;14.32;9.95;;;;;;;;;;143736;586;46020;-53
2021/07/21 02:00:50;;;;;;;17.02;10.35;;;;;;;;;;143734;578;46013;-54
2021/07/21 02:03:19;;;;;;;16.33;10.68;;;;;;;;;;143743;576;46020;-54
2021/07/21 02:05:48;;;;;;;18.10;10.55;;;;;;;;;;143741;571;46022;-53
2021/07/21 02:08:19;;;;;;;17.65;11.52;;;;;;;;;;143739;672;46021;-54
2021/07/21 02:10:46;;;;;;;13.98;10.45;;;;;;;;;;143739;658;46012;-55
2021/07/21 02:13:16;;;;;;;16.00;11.02;;;;;;;;;;143742;621;45020;-54
2021/07/21 02:15:46;;;;;;;24.12;10.25;;;;;;;;;;143741;573;46023;-53
2021/07/21 02:18:17;;;;;;;13.80;10.38;;;;;;;;;;143734;592;46020;-54
2021/07/21 02:20:46;;;;;;;17.10;10.82;;;;;;;;;;143741;607;46012;-55
2021/07/21 02:23:18;;;;;;;14.60;10.23;;;;;;;;;;143745;634;46019;-55
2021/07/21 02:25:46;;;;;;;12.88;9.60;;;;;;;;;;143735;635;46022;-54
2021/07/21 02:28:15;;;;;;;12.60;10.80;;;;;;;;;;143738;589;46020;-54
2021/07/21 02:30:46;;;;;;;16.00;11.05;;;;;;;;;;143739;584;46012;-55
2021/07/21 02:33:41;;;;;;;13.77;11.20;;;;;;;;;;143742;590;45020;-54
2021/07/21 02:36:08;;;;;;;12.55;9.90;;;;;;;;;;143741;720;46022;-54
2021/07/21 02:38:35;;;;;;;14.25;10.20;;;;;;;;;;143738;587;46020;-55
2021/07/21 02:41:02;;;;;;;15.20;11.02;;;;;;;;;;143740;564;46012;-55
2021/07/21 02:43:29;;;;;;;12.30;10.60;;;;;;;;;;143741;584;45021;-53
2021/07/21 02:45:57;;;;;;;11.95;9.40;;;;;;;;;;143741;590;46023;-54
2021/07/21 02:48:24;;;;;;;10.63;9.43;;;;;;;;;;143739;674;46020;-53
2021/07/21 02:50:58;;;;;;;13.73;10.25;;;;;;;;;;143736;582;46015;-54
2021/07/21 02:53:32;;;;;;;15.05;9.82;;;;;;;;;;143744;581;45021;-53
2021/07/21 02:56:12;;;;;;;14.43;10.52;;;;;;;;;;143743;643;46022;-54
2021/07/21 02:58:52;;;;;;;16.45;10.38;;;;;;;;;;143738;567;46021;-53
2021/07/21 03:01:21;;;;;;;13.73;10.00;;;;;;;;;;143738;566;46022;-54
2021/07/21 03:03:50;;;;;;;13.55;10.02;;;;;;;;;;143742;570;46020;-54
2021/07/21 03:06:20;;;;;;;13.10;10.13;;;;;;;;;;143739;634;46022;-54
2021/07/21 03:08:48;;;;;;;13.98;9.52;;;;;;;;;;143740;592;46020;-55
2021/07/21 03:11:17;;;;;;;11.57;9.10;;;;;;;;;;143740;574;46012;-53
2021/07/21 03:13:51;;;;;;;12.05;9.20;;;;;;;;;;143744;586;45021;-54
2021/07/21 03:16:22;;;;;;;13.57;9.83;;;;;;;;;;143736;583;46020;-54
2021/07/21 03:18:53;;;;;;;11.43;8.95;;;;;;;;;;143740;571;46020;-53
2021/07/21 03:21:22;;;;;;;11.88;9.63;;;;;;;;;;143737;596;46021;-54
2021/07/21 03:23:50;;;;;;;11.90;9.05;;;;;;;;;;143741;566;45021;-54
2021/07/21 03:26:18;;;;;;;13.75;9.70;;;;;;;;;;143742;573;46022;-55
2021/07/21 03:28:45;;;;;;;11.80;9.73;;;;;;;;;;143736;588;47013;-55
2021/07/21 03:31:13;;;;;;;12.43;9.30;;;;;;;;;;143740;589;47020;-54
2021/07/21 03:33:41;;;;;;;12.93;9.68;;;;;;;;;;143743;585;45020;-54
2021/07/21 03:36:09;;;;;;;12.82;8.75;;;;;;;;;;143741;612;46022;-55
2021/07/21 03:38:38;;;;;;;13.07;8.93;;;;;;;;;;143737;577;47012;-55
2021/07/21 03:41:06;;;;;;;12.85;9.10;;;;;;;;;;143733;569;46018;-54
2021/07/21 03:43:33;;;;;;;27.13;10.68;;;;;;;;;;143742;574;46020;-54
2021/07/21 03:46:00;;;;;;;12.57;9.52;;;;;;;;;;143741;602;46020;-55
2021/07/21 03:48:28;;;;;;;12.75;9.27;;;;;;;;;;143738;590;46020;-54
2021/07/21 03:50:59;;;;;;;14.57;8.75;;;;;;;;;;143739;595;46012;-53
2021/07/21 03:53:29;;;;;;;11.45;9.13;;;;;;;;;;143742;614;45021;-54
2021/07/21 03:55:56;;;;;;;14.65;9.85;;;;;;;;;;143741;569;46020;-53
2021/07/21 03:58:23;;;;;;;13.02;8.82;;;;;;;;;;143738;590;46021;-53
2021/07/21 04:00:54;;;;;;;11.82;9.45;;;;;;;;;;143738;686;46012;-54
2021/07/21 04:03:23;;;;;;;14.20;9.30;;;;;;;;;;143744;591;46020;-55
2021/07/21 04:05:52;;;;;;;12.93;9.40;;;;;;;;;;143734;574;46022;-53
2021/07/21 04:08:20;;;;;;;10.55;8.63;;;;;;;;;;143740;591;46020;-53
2021/07/21 04:10:52;;;;;;;10.10;8.80;;;;;;;;;;143740;578;46012;-55
2021/07/21 04:13:21;;;;;;;14.15;9.20;;;;;;;;;;143745;615;46020;-54
2021/07/21 04:15:50;;;;;;;11.12;8.43;;;;;;;;;;143741;595;46023;-54
2021/07/21 04:18:21;;;;;;;9.95;8.20;;;;;;;;;;143739;608;46020;-53
2021/07/21 04:20:50;;;;;;;14.13;8.68;;;;;;;;;;143740;673;46012;-53
2021/07/21 04:23:18;;;;;;;13.70;8.88;;;;;;;;;;143743;607;46020;-53
2021/07/21 04:25:48;;;;;;;12.75;8.98;;;;;;;;;;143743;579;46022;-54
2021/07/21 04:28:15;;;;;;;14.98;8.32;;;;;;;;;;143740;640;46021;-53
2021/07/21 04:30:44;;;;;;;11.88;8.90;;;;;;;;;;143734;583;46012;-54
2021/07/21 04:33:11;;;;;;;12.18;8.65;;;;;;;;;;143744;592;46020;-53
2021/07/21 04:35:38;;;;;;;12.15;8.05;;;;;;;;;;143739;601;46022;-54
2021/07/21 04:38:06;;;;;;;12.25;9.25;;;;;;;;;;143738;586;46020;-54
2021/07/21 04:40:33;;;;;;;13.52;9.13;;;;;;;;;;143739;575;46012;-54
2021/07/21 04:43:00;;;;;;;14.32;9.70;;;;;;;;;;143743;611;46020;-54
2021/07/21 04:45:28;;;;;;;13.60;8.80;;;;;;;;;;143742;608;46023;-53
2021/07/21 04:47:55;;;;;;;14.23;8.43;;;;;;;;;;143736;605;46020;-54
2021/07/21 04:50:23;;;;;;;12.43;8.82;;;;;;;;;;143741;569;46013;-54
2021/07/21 04:52:50;;;;;;;15.32;8.68;;;;;;;;;;143744;617;45021;-55
2021/07/21 04:55:18;;;;;;;9.45;8.00;;;;;;;;;;143734;610;46022;-53
2021/07/21 04:57:48;;;;;;;12.98;9.70;;;;;;;;;;143739;570;46021;-54
2021/07/21 05:00:16;;;;;;;11.57;8.90;;;;;;;;;;143740;682;46012;-54
2021/07/21 05:02:43;;;;;;;12.95;10.20;;;;;;;;;;143742;594;45020;-54
2021/07/21 05:05:11;;;;;;;9.57;8.43;;;;;;;;;;143742;639;46022;-53
2021/07/21 05:07:38;;;;;;;10.65;8.45;;;;;;;;;;143737;603;46917;-53
2021/07/21 05:10:05;;;;;;;19.60;9.20;;;;;;;;;;143736;620;46020;-54
2021/07/21 05:12:33;;;;;;;12.82;8.35;;;;;;;;;;143745;594;45021;-53
2021/07/21 05:15:00;;;;;;;13.55;8.63;;;;;;;;;;143741;597;46021;-53
2021/07/21 05:17:28;;;;;;;24.48;10.07;;;;;;;;;;143739;668;46020;-54
2021/07/21 05:19:55;;;;;;;13.52;9.40;;;;;;;;;;143733;594;46014;-54
2021/07/21 05:22:22;;;;;;;11.80;10.02;;;;;;;;;;143743;566;45021;-54
2021/07/21 05:24:49;;;;;;;12.52;9.57;;;;;;;;;;143741;579;46022;-54
2021/07/21 05:27:16;;;;;;;12.10;9.40;;;;;;;;;;143738;687;46021;-54
2021/07/21 05:29:43;;;;;;;11.85;8.82;;;;;;;;;;143734;592;46021;-53
2021/07/21 05:32:10;;;;;;;15.75;9.05;;;;;;;;;;143743;589;45020;-53
2021/07/21 05:34:37;;;;;;;13.52;9.20;;;;;;;;;;143741;584;46022;-54
2021/07/21 05:37:05;;;;;;;18.20;9.43;;;;;;;;;;143738;664;47012;-54
2021/07/21 05:39:32;;;;;;;12.13;8.57;;;;;;;;;;143736;564;46020;-53
2021/07/21 05:41:59;;;;;;;12.40;8.95;;;;;;;;;;143742;648;45021;-53
2021/07/21 05:44:26;;;;;;;16.37;9.50;;;;;;;;;;143734;670;46029;-53
2021/07/21 05:46:53;;;;;;;11.35;8.48;;;;;;;;;;143738;589;46020;-53
2021/07/21 05:49:21;;;;;;;17.92;8.38;;;;;;;;;;143739;590;46012;-53
2021/07/21 05:51:48;;;;;;;12.50;9.00;;;;;;;;;;143744;650;46021;-54
2021/07/21 05:54:15;;;;;;;15.02;8.65;;;;;;;;;;143744;564;46020;-55
2021/07/21 05:56:42;;;;;;;13.88;8.38;;;;;;;;;;143741;573;46916;-55
2021/07/21 05:59:09;;;;;;;10.18;8.55;;;;;;;;;;143730;583;46021;-54
2021/07/21 06:01:36;;;;;;;11.70;8.88;;;;;;;;;;143744;587;46012;-54
2021/07/21 06:04:04;;;;;;;18.83;9.32;;;;;;;;;;143740;563;47022;-54
2021/07/21 06:06:31;;;;;;;10.95;8.18;;;;;;;;;;143739;594;46021;-54
2021/07/21 06:08:58;;;;;;;11.20;7.82;;;;;;;;;;143733;575;46020;-54
2021/07/21 06:11:24;;;;;;;13.65;8.60;;;;;;;;;;143744;630;45021;-55
2021/07/21 06:13:51;;;;;;;11.60;8.35;;;;;;;;;;143743;591;46023;-54
2021/07/21 06:16:19;;;;;;;12.63;8.43;;;;;;;;;;143740;564;46020;-56
2021/07/21 06:18:46;;;;;;;16.20;8.95;;;;;;;;;;143740;611;46019;-55
2021/07/21 06:21:13;;;;;;;11.23;8.80;;;;;;;;;;143744;602;45021;-56
2021/07/21 06:23:40;;;;;;;12.40;8.20;;;;;;;;;;143744;614;46022;-55
2021/07/21 06:26:07;;;;;;;15.52;8.82;;;;;;;;;;143739;574;46020;-54
2021/07/21 06:28:34;;;;;;;12.25;8.13;;;;;;;;;;143739;590;46012;-54
2021/07/21 06:31:02;;;;;;;12.95;8.63;;;;;;;;;;143743;587;46020;-55
2021/07/21 06:33:28;;;;;;;12.68;8.73;;;;;;;;;;143735;581;46020;-55
2021/07/21 06:35:56;;;;;;;11.93;8.65;;;;;;;;;;143738;569;46026;-55
2021/07/21 06:38:23;;;;;;;11.15;8.60;;;;;;;;;;143740;647;46012;-55
2021/07/21 06:40:50;;;;;;;12.45;8.98;;;;;;;;;;143744;590;45020;-55
2021/07/21 06:43:17;;;;;;;15.82;9.13;;;;;;;;;;143743;596;47020;-55
2021/07/21 06:45:44;;;;;;;14.45;8.48;;;;;;;;;;143739;738;46020;-54
2021/07/21 06:48:11;;;;;;;12.35;9.20;;;;;;;;;;143741;598;46012;-54
2021/07/21 06:50:38;;;;;;;13.20;8.13;;;;;;;;;;143744;585;45021;-55
2021/07/21 06:53:05;;;;;;;10.98;8.15;;;;;;;;;;143743;716;46020;-53
2021/07/21 06:55:32;;;;;;;10.57;8.00;;;;;;;;;;143740;724;46020;-55
2021/07/21 06:57:59;;;;;;;13.20;8.10;;;;;;;;;;143735;591;46013;-53
2021/07/21 07:00:27;;;;;;;14.85;8.15;;;;;;;;;;143743;582;45020;-53
2021/07/21 07:02:54;;;;;;;14.20;8.20;;;;;;;;;;143741;563;46022;-53
2021/07/21 07:05:21;;;;;;;23.33;9.85;;;;;;;;;;143739;653;46021;-54
2021/07/21 07:07:48;;;;;;;11.65;8.48;;;;;;;;;;143739;612;46012;-54
2021/07/21 07:10:18;;;;;;;18.17;9.07;;;;;;;;;;143744;585;46020;-54
2021/07/21 07:12:46;;;;;;;13.18;8.88;;;;;;;;;;143743;599;46022;-53
2021/07/21 07:15:14;;;;;;;19.25;8.57;;;;;;;;;;143740;591;46020;-54
2021/07/21 07:17:41;;;;;;;17.87;9.15;;;;;;;;;;143741;581;46012;-54
2021/07/21 07:20:09;;;;;;;13.50;8.50;;;;;;;;;;143745;602;45021;-53
2021/07/21 07:22:36;;;;;;;18.25;9.05;;;;;;;;;;143736;576;46023;-53
2021/07/21 07:25:03;;;;;;;13.82;8.27;;;;;;;;;;143739;631;47012;-53
2021/07/21 07:27:31;;;;;;;14.82;9.20;;;;;;;;;;143742;591;46013;-54
2021/07/21 07:29:58;;;;;;;13.93;9.00;;;;;;;;;;143746;589;45020;-53
2021/07/21 07:32:25;;;;;;;12.40;8.40;;;;;;;;;;143742;585;46022;-53
2021/07/21 07:34:53;;;;;;;11.70;8.27;;;;;;;;;;143740;593;46021;-53
2021/07/21 07:37:20;;;;;;;14.57;8.63;;;;;;;;;;143741;597;46012;-54
2021/07/21 07:39:47;;;;;;;21.55;9.73;;;;;;;;;;143746;587;45020;-53
2021/07/21 07:42:14;;;;;;;21.17;9.13;;;;;;;;;;143743;571;46021;-54
2021/07/21 07:44:42;;;;;;;16.42;10.05;;;;;;;;;;143740;593;46020;-53
2021/07/21 07:47:09;;;;;;;16.25;8.98;;;;;;;;;;143737;564;46012;-53
2021/07/21 07:49:36;;;;;;;14.48;9.13;;;;;;;;;;143743;567;46021;-53
2021/07/21 07:52:03;;;;;;;9.60;8.60;;;;;;;;;;143740;609;47023;-54
2021/07/21 07:54:30;;;;;;;13.40;9.52;;;;;;;;;;143740;580;46020;-52
2021/07/21 07:56:57;;;;;;;15.95;10.02;;;;;;;;;;143743;573;46013;-53
2021/07/21 07:59:24;;;;;;;16.10;9.57;;;;;;;;;;143744;564;46020;-54
2021/07/21 08:01:51;;;;;;;16.15;9.75;;;;;;;;;;143745;600;46022;-53
2021/07/21 08:04:18;;;;;;;15.57;9.70;;;;;;;;;;143739;606;46021;-54
2021/07/21 08:06:45;;;;;;;11.75;9.15;;;;;;;;;;143739;572;46012;-53
2021/07/21 08:09:13;;;;;;;14.10;9.63;;;;;;;;;;143747;618;45020;-54
2021/07/21 08:11:55;;;;;;;14.55;9.82;;;;;;;;;;143736;570;46022;-53
2021/07/21 08:14:22;;;;;;;17.95;10.13;;;;;;;;;;143741;660;46020;-53
2021/07/21 08:16:50;;;;;;;13.10;9.48;;;;;;;;;;143739;565;46012;-53
2021/07/21 08:19:18;;;;;;;19.33;9.88;;;;;;;;;;143746;572;46020;-54
2021/07/21 08:21:45;;;;;;;16.77;9.38;;;;;;;;;;143743;615;47020;-55
2021/07/21 08:24:13;;;;;;;15.43;9.95;;;;;;;;;;143740;566;46020;-55
2021/07/21 08:26:41;;;;;;;17.20;9.75;;;;;;;;;;143740;572;46012;-55
2021/07/21 08:29:08;;;;;;;13.77;9.95;;;;;;;;;;143744;592;45021;-54
2021/07/21 08:31:35;;;;;;;16.87;9.57;;;;;;;;;;143743;583;46022;-54
2021/07/21 08:34:05;;;;;;;15.05;10.52;;;;;;;;;;143742;631;46021;-55
2021/07/21 08:36:36;;;;;;;15.05;10.00;;;;;;;;;;143734;564;46012;-54
2021/07/21 08:39:05;;;;;;;14.50;10.93;;;;;;;;;;143746;648;46020;-53
2021/07/21 08:41:34;;;;;;;15.20;10.80;;;;;;;;;;143743;692;46022;-54
2021/07/21 08:44:01;;;;;;;14.73;9.90;;;;;;;;;;143739;564;46020;-55
2021/07/21 08:46:28;;;;;;;15.25;10.65;;;;;;;;;;143742;608;46012;-54
2021/07/21 08:48:55;;;;;;;14.50;10.50;;;;;;;;;;143742;626;46019;-55
2021/07/21 08:51:24;;;;;;;16.08;11.05;;;;;;;;;;143743;587;46020;-55
2021/07/21 08:53:52;;;;;;;16.02;10.73;;;;;;;;;;143742;612;46020;-54
2021/07/21 08:56:21;;;;;;;15.57;10.77;;;;;;;;;;143739;643;46013;-55
2021/07/21 08:58:48;;;;;;;13.80;11.30;;;;;;;;;;143742;594;46021;-55
2021/07/21 09:01:17;;;;;;;20.02;11.38;;;;;;;;;;143738;614;46020;-55
2021/07/21 09:03:44;;;;;;;15.88;11.68;;;;;;;;;;143739;585;46021;-55
2021/07/21 09:06:16;;;;;;;18.25;11.18;;;;;;;;;;143736;601;48014;-55
2021/07/21 09:08:43;;;;;;;15.23;10.98;;;;;;;;;;143747;595;45020;-55
2021/07/21 09:11:12;;;;;;;17.33;11.07;;;;;;;;;;143744;602;46022;-55
2021/07/21 09:13:39;;;;;;;16.62;10.77;;;;;;;;;;143736;653;46021;-55
2021/07/21 09:16:07;;;;;;;15.50;10.95;;;;;;;;;;143739;566;46012;-55
2021/07/21 09:18:51;;;;;;;12.15;10.75;;;;;;;;;;143745;612;46020;-55
2021/07/21 09:21:21;;;;;;;13.57;10.98;;;;;;;;;;143737;613;49020;-55
2021/07/21 09:23:50;;;;;;;15.15;11.18;;;;;;;;;;143742;575;46020;-56
2021/07/21 09:26:32;;;;;;;14.18;11.73;;;;;;;;;;143738;635;46012;-54
2021/07/21 09:29:02;;;;;;;13.23;10.75;;;;;;;;;;143744;597;45020;-55
2021/07/21 09:31:32;;;;;;;15.20;10.52;;;;;;;;;;143744;569;47020;-54
2021/07/21 09:34:16;;;;;;;14.85;10.63;;;;;;;;;;143740;595;46021;-53
2021/07/21 09:36:43;;;;;;;;;;;;;;;;;;143746;972;46012;-53
2021/07/21 09:39:11;;;;;;;13.73;10.88;;;;;;;;;;143748;576;45020;-52
2021/07/21 09:41:48;;;;;;;16.55;11.65;;;;;;;;;;143743;611;46022;-53
2021/07/21 09:44:17;;;;;;;16.95;12.05;;;;;;;;;;143740;581;46020;-54
2021/07/21 09:46:44;;;;;;;15.93;11.82;;;;;;;;;;143741;658;46012;-53
2021/07/21 09:49:21;;;;;;;15.82;11.32;;;;;;;;;;143744;591;45021;-53
2021/07/21 09:51:48;;;;;;;15.98;12.40;;;;;;;;;;143738;602;46020;-53
2021/07/21 09:54:19;;;;;;;19.40;12.88;;;;;;;;;;143738;606;46020;-53
2021/07/21 09:56:50;;;;;;;24.70;13.60;;;;;;;;;;143740;619;46013;-54
2021/07/21 09:59:33;;;;;;;16.73;13.88;;;;;;;;;;143742;620;45020;-52
2021/07/21 10:02:16;;;;;;;20.95;13.82;;;;;;;;;;143743;596;46022;-53
2021/07/21 10:04:48;;;;;;;21.15;14.07;;;;;;;;;;143739;609;46021;-54
2021/07/21 10:07:46;;;;;;;19.50;14.73;;;;;;;;;;143740;587;46012;-53
2021/07/21 10:10:15;;;;;;;29.87;15.25;;;;;;;;;;143741;604;49012;-54
2021/07/21 10:12:42;;;;;;;16.92;15.13;;;;;;;;;;143742;591;46023;-54
2021/07/21 10:15:09;;;;;;;18.85;15.80;;;;;;;;;;143739;613;47012;-54
2021/07/21 10:17:37;;;;;;;21.30;14.48;;;;;;;;;;143735;579;46013;-55
2021/07/21 10:20:05;;;;;;;17.50;14.55;;;;;;;;;;143742;607;47012;-54
2021/07/21 10:22:32;;;;;;;18.67;14.27;;;;;;;;;;143742;622;47020;-54
2021/07/21 10:24:59;;;;;;;19.20;13.90;;;;;;;;;;143742;565;46020;-55
2021/07/21 10:27:26;;;;;;;24.17;14.85;;;;;;;;;;143742;596;46012;-54
2021/07/21 10:29:56;;;;;;;21.85;14.65;;;;;;;;;;143742;648;45020;-54
2021/07/21 10:32:24;;;;;;;24.83;14.20;;;;;;;;;;143742;582;46020;-55
2021/07/21 10:34:52;;;;;;;19.15;13.75;;;;;;;;;;143738;570;46021;-54
2021/07/21 10:37:19;;;;;;;20.10;13.73;;;;;;;;;;143742;640;46012;-55
2021/07/21 10:39:50;;;;;;;16.70;13.23;;;;;;;;;;143746;598;45021;-54
2021/07/21 10:42:19;;;;;;;21.73;14.23;;;;;;;;;;143734;580;46023;-55
2021/07/21 10:44:57;;;;;;;21.08;13.35;;;;;;;;;;143742;605;46020;-54
2021/07/21 10:47:25;;;;;;;17.55;12.93;;;;;;;;;;143741;606;46012;-55
2021/07/21 10:49:57;;;;;;;15.98;13.15;;;;;;;;;;143744;575;46021;-54
2021/07/21 10:55:26;;;;;;;16.58;13.48;;;;;;;;;;143742;624;45916;-54
2021/07/21 11:00:53;;;;;;;16.20;13.20;;;;;;;;;;143745;571;46020;-54
2021/07/21 11:03:33;;;;;;;21.33;13.30;;;;;;;;;;143741;571;46023;-54
2021/07/21 11:06:07;;;;;;;18.12;12.82;;;;;;;;;;143739;569;46020;-55
2021/07/21 11:08:46;;;;;;;16.85;12.00;;;;;;;;;;143737;569;46012;-54
2021/07/21 11:11:21;;;;;;;14.60;11.68;;;;;;;;;;143744;583;45021;-54
2021/07/21 11:14:00;;;;;;;15.15;12.02;;;;;;;;;;143745;579;46020;-54
2021/07/21 11:16:50;;;;;;;14.60;12.30;;;;;;;;;;143734;603;46020;-54
2021/07/21 11:19:34;;;;;;;15.40;12.23;;;;;;;;;;143740;579;46021;-55
2021/07/21 11:22:25;;;;;;;15.52;12.05;;;;;;;;;;143744;591;46020;-55
2021/07/21 11:25:17;;;;;;;15.25;11.30;;;;;;;;;;143745;604;46021;-54
2021/07/21 11:28:04;;;;;;;16.92;11.15;;;;;;;;;;143739;611;46020;-55
2021/07/21 11:30:34;;;;;;;17.15;11.20;;;;;;;;;;143733;607;46020;-55
2021/07/21 11:33:36;;;;;;;16.65;10.88;;;;;;;;;;143744;607;46020;-55
2021/07/21 11:36:03;;;;;;;15.57;10.73;;;;;;;;;;143735;569;47020;-55
2021/07/21 11:38:53;;;;;;;13.27;10.48;;;;;;;;;;143739;565;46020;-54
2021/07/21 11:41:48;;;;;;;16.87;10.85;;;;;;;;;;143739;594;46012;-54
2021/07/21 11:44:31;;;;;;;14.77;10.25;;;;;;;;;;143746;594;46020;-54
2021/07/21 11:47:00;;;;;;;15.87;10.67;;;;;;;;;;143743;609;47020;-53
2021/07/21 11:49:29;;;;;;;12.90;10.15;;;;;;;;;;143736;626;47012;-54
2021/07/21 11:51:59;;;;;;;12.88;10.38;;;;;;;;;;143742;592;46012;-53
2021/07/21 11:54:35;;;;;;;12.20;9.80;;;;;;;;;;143746;608;45021;-53
2021/07/21 11:57:05;;;;;;;16.00;10.52;;;;;;;;;;143744;594;46053;-53
2021/07/21 11:59:37;;;;;;;14.70;11.15;;;;;;;;;;143740;592;46020;-53
2021/07/21 12:02:30;;;;;;;17.55;10.52;;;;;;;;;;143740;610;46013;-53
2021/07/21 12:04:58;;;;;;;12.48;10.18;;;;;;;;;;143745;612;45022;-53
2021/07/21 12:07:36;;;;;;;14.85;11.00;;;;;;;;;;143744;566;46022;-54
2021/07/21 12:10:15;;;;;;;15.55;11.02;;;;;;;;;;143740;613;46021;-54
2021/07/21 12:12:43;;;;;;;14.57;10.63;;;;;;;;;;143741;595;46012;-53
2021/07/21 12:15:14;;;;;;;13.77;10.07;;;;;;;;;;143744;563;46020;-53
2021/07/21 12:17:40;;;;;;;16.27;10.52;;;;;;;;;;143742;600;46021;-53
2021/07/21 12:20:10;;;;;;;12.18;10.55;;;;;;;;;;143741;575;46020;-53
2021/07/21 12:22:40;;;;;;;12.63;10.85;;;;;;;;;;143740;603;46012;-52
2021/07/21 12:25:10;;;;;;;13.52;10.43;;;;;;;;;;143743;593;45021;-53
2021/07/21 12:27:45;;;;;;;14.45;10.48;;;;;;;;;;143736;595;45023;-53
2021/07/21 12:30:21;;;;;;;11.82;10.52;;;;;;;;;;143737;585;46020;-54
2021/07/21 12:32:50;;;;;;;15.18;10.05;;;;;;;;;;143741;629;46012;-53
2021/07/21 12:35:19;;;;;;;14.30;10.68;;;;;;;;;;143742;564;45020;-54
2021/07/21 12:37:49;;;;;;;19.27;10.95;;;;;;;;;;143742;583;46020;-54
2021/07/21 12:40:21;;;;;;;18.17;11.18;;;;;;;;;;143737;587;46021;-53
2021/07/21 12:42:51;;;;;;;14.13;10.15;;;;;;;;;;143739;576;46012;-54
2021/07/21 12:45:21;;;;;;;13.15;9.98;;;;;;;;;;143740;563;46020;-53
2021/07/21 12:47:53;;;;;;;13.18;10.30;;;;;;;;;;143740;622;46022;-54
2021/07/21 12:50:28;;;;;;;18.23;10.23;;;;;;;;;;143740;608;46020;-53
2021/07/21 12:53:19;;;;;;;12.80;10.38;;;;;;;;;;143735;664;46012;-53
2021/07/21 12:55:50;;;;;;;12.25;9.02;;;;;;;;;;143740;613;45021;-53
2021/07/21 12:58:22;;;;;;;15.07;10.18;;;;;;;;;;143741;584;46022;-53
2021/07/21 13:00:57;;;;;;;12.02;9.55;;;;;;;;;;143738;624;46020;-54
2021/07/21 13:03:25;;;;;;;12.07;9.32;;;;;;;;;;143741;635;46012;-53
2021/07/21 13:05:58;;;;;;;12.63;8.95;;;;;;;;;;143741;665;45020;-53
2021/07/21 13:08:33;;;;;;;11.02;9.40;;;;;;;;;;143741;648;46022;-53
2021/07/21 13:11:13;;;;;;;10.63;9.25;;;;;;;;;;143738;582;46021;-53
2021/07/21 13:14:03;;;;;;;12.77;9.52;;;;;;;;;;143741;651;46018;-53
2021/07/21 13:16:35;;;;;;;16.00;10.32;;;;;;;;;;143742;564;46014;-53
2021/07/21 13:19:12;;;;;;;15.68;9.73;;;;;;;;;;143735;569;46023;-53
2021/07/21 13:21:47;;;;;;;13.60;9.13;;;;;;;;;;143738;566;46020;-53
2021/07/21 13:24:20;;;;;;;10.85;9.40;;;;;;;;;;143741;565;46013;-53
2021/07/21 13:27:01;;;;;;;12.90;10.00;;;;;;;;;;143742;587;46020;-53
2021/07/21 13:29:30;;;;;;;15.82;10.05;;;;;;;;;;143742;586;46020;-53
2021/07/21 13:31:57;;;;;;;12.93;9.77;;;;;;;;;;143740;646;46021;-52
2021/07/21 13:34:28;;;;;;;15.27;10.15;;;;;;;;;;143740;617;46012;-51
2021/07/21 13:36:57;;;;;;;13.50;10.80;;;;;;;;;;143743;610;46020;-51
2021/07/21 13:39:25;;;;;;;15.52;10.55;;;;;;;;;;143743;565;46022;-52
2021/07/21 13:41:58;;;;;;;11.52;10.32;;;;;;;;;;143738;629;46020;-51
2021/07/21 13:44:30;;;;;;;13.00;10.85;;;;;;;;;;143735;577;46012;-52
2021/07/21 13:47:04;;;;;;;12.90;10.63;;;;;;;;;;143743;570;45021;-51
2021/07/21 13:49:35;;;;;;;12.50;10.98;;;;;;;;;;143739;645;47022;-51
2021/07/21 13:52:11;;;;;;;21.55;11.70;;;;;;;;;;143738;611;46020;-52
2021/07/21 13:54:43;;;;;;;16.70;11.35;;;;;;;;;;143741;657;46012;-52
2021/07/21 13:57:14;;;;;;;16.73;10.73;;;;;;;;;;143743;715;45020;-52
2021/07/21 13:59:42;;;;;;;12.32;10.07;;;;;;;;;;143740;595;46022;-51
2021/07/21 14:02:12;;;;;;;13.50;10.13;;;;;;;;;;143739;580;46021;-52
2021/07/21 14:04:39;;;;;;;14.40;11.73;;;;;;;;;;143741;572;46012;-52
2021/07/21 14:07:08;;;;;;;13.18;11.18;;;;;;;;;;143743;563;46020;-51
2021/07/21 14:09:35;;;;;;;13.00;10.70;;;;;;;;;;143735;597;46021;-51
2021/07/21 14:12:02;;;;;;;16.55;11.82;;;;;;;;;;143737;613;46020;-52
2021/07/21 14:14:29;;;;;;;18.17;12.00;;;;;;;;;;143738;572;46012;-54
2021/07/21 14:16:56;;;;;;;14.95;11.02;;;;;;;;;;143741;595;46021;-53
2021/07/21 14:19:25;;;;;;;14.27;12.43;;;;;;;;;;143742;581;46023;-53
2021/07/21 14:21:53;;;;;;;17.58;12.13;;;;;;;;;;143739;598;46020;-53
2021/07/21 14:24:21;;;;;;;15.30;11.00;;;;;;;;;;143739;587;46013;-54
2021/07/21 14:26:49;;;;;;;15.30;11.65;;;;;;;;;;143743;664;46020;-53
2021/07/21 14:29:16;;;;;;;15.32;11.93;;;;;;;;;;143740;565;47020;-53
2021/07/21 14:31:44;;;;;;;20.10;12.68;;;;;;;;;;143738;574;47012;-53
2021/07/21 14:34:15;;;;;;;16.35;12.32;;;;;;;;;;143735;626;46012;-53
2021/07/21 14:36:46;;;;;;;15.35;12.48;;;;;;;;;;143744;610;46020;-53
2021/07/21 14:39:15;;;;;;;15.98;12.43;;;;;;;;;;143739;614;47021;-53
2021/07/21 14:41:44;;;;;;;14.27;12.43;;;;;;;;;;143736;587;46020;-53
2021/07/21 14:44:11;;;;;;;13.80;11.23;;;;;;;;;;143740;597;46014;-53
2021/07/21 14:46:38;;;;;;;15.90;11.82;;;;;;;;;;143743;589;45021;-54
2021/07/21 14:49:06;;;;;;;14.85;11.60;;;;;;;;;;143742;566;46022;-53
2021/07/21 14:51:33;;;;;;;14.07;12.60;;;;;;;;;;143740;564;46020;-54
2021/07/21 14:54:00;;;;;;;17.33;11.70;;;;;;;;;;143739;599;46013;-52